Terminal Aerodrome Forecast
Issued by NWS Quad Cities IA IL

Home | Current Version | Previous Version | Text Only | Print | Product List | Glossary On
Versions: 1 2 3 4 5 6 7 8 9 10 11 12 13 14 15 16 17 18 19 20 21 22
000
FTUS43 KDVN 301151
TAFDBQ
TAF
KDBQ 301151Z 3012/3112 01017G25KT 5SM BR VCSH BKN012 OVC020
      TEMPO 3012/3015 35012G20KT BKN007
     FM301900 04017G25KT P6SM VCSH SCT010 OVC015
     FM302300 06010KT P6SM SCT030
     FM310600 03008KT P6SM SKC=

USA.gov is the U.S. government's official web portal to all federal, state and local government web resources and services.